Terminal Aerodrome Forecast
Issued by NWS Sioux Falls, SD

Home | Current Version | Previous Version | Graphics & Text | Print | Product List | Glossary Off
Versions: 1 2 3 4 5 6 7 8 9 10 11 12 13 14 15 16 17 18 19 20

772
FTUS43 KFSD 031731
TAFHON
TAF
KHON 031731Z 0318/0418 30009KT P6SM SCT250
     FM032200 24006KT P6SM SCT120
     FM032300 20006KT P6SM SCT080
     FM041000 22008KT P6SM BKN060
     FM041500 30008KT P6SM SCT060=

USA.gov is the U.S. government's official web portal to all federal, state and local government web resources and services.